createdAt,value
2022-12-11T00:01:40.191Z,19.77
2022-12-11T00:04:07.765Z,19.76
2022-12-11T00:06:34.094Z,19.75
2022-12-11T00:09:00.576Z,19.76
2022-12-11T00:11:26.858Z,19.76
2022-12-11T00:13:53.123Z,19.75
2022-12-11T00:16:23.810Z,19.76
2022-12-11T00:18:52.951Z,19.75
2022-12-11T00:21:20.677Z,19.74
2022-12-11T00:23:46.954Z,19.74
2022-12-11T00:26:14.311Z,19.74
2022-12-11T00:28:41.136Z,19.73
2022-12-11T00:31:08.503Z,19.73
2022-12-11T00:33:34.882Z,19.73
2022-12-11T00:36:01.177Z,19.73
2022-12-11T00:38:28.762Z,19.73
2022-12-11T00:40:58.345Z,19.71
2022-12-11T00:43:24.628Z,19.73
2022-12-11T00:45:50.948Z,19.73
2022-12-11T00:48:18.487Z,19.73
2022-12-11T00:50:44.919Z,19.72
2022-12-11T00:53:11.363Z,19.72
2022-12-11T00:55:39.793Z,19.73
2022-12-11T00:58:06.353Z,19.73
2022-12-11T01:00:32.657Z,19.73
2022-12-11T01:02:59.043Z,19.73
2022-12-11T01:05:25.450Z,19.72
2022-12-11T01:07:51.849Z,19.73
2022-12-11T01:10:18.383Z,19.73
2022-12-11T01:12:46.011Z,19.72
2022-12-11T01:15:12.701Z,19.73
2022-12-11T01:17:39.189Z,19.73
2022-12-11T01:20:05.788Z,19.73
2022-12-11T01:22:32.215Z,19.72
2022-12-11T01:24:58.623Z,19.72
2022-12-11T01:27:24.905Z,19.73
2022-12-11T01:29:52.569Z,19.72
2022-12-11T01:32:18.904Z,19.73
2022-12-11T01:34:45.295Z,19.72
2022-12-11T01:37:11.670Z,19.72
2022-12-11T01:39:38.078Z,19.72
2022-12-11T01:42:04.787Z,19.73
2022-12-11T01:44:40.953Z,19.73
2022-12-11T01:47:08.527Z,19.72
2022-12-11T01:49:34.885Z,19.72
2022-12-11T01:52:05.668Z,19.71
2022-12-11T01:54:32.376Z,19.71
2022-12-11T01:57:01.477Z,19.72
2022-12-11T01:59:29.887Z,19.73
2022-12-11T02:01:59.036Z,19.73
2022-12-11T02:04:27.808Z,19.73
2022-12-11T02:06:54.753Z,19.73
2022-12-11T02:09:22.323Z,19.73
2022-12-11T02:11:53.092Z,19.73
2022-12-11T02:14:27.529Z,19.73
2022-12-11T02:16:55.857Z,19.73
2022-12-11T02:19:34.812Z,19.75
2022-12-11T02:22:03.254Z,19.74
2022-12-11T02:24:36.043Z,19.75
2022-12-11T02:27:14.098Z,19.75
2022-12-11T02:29:45.808Z,19.75
2022-12-11T02:32:16.233Z,19.75
2022-12-11T02:34:45.218Z,19.75
2022-12-11T02:37:15.119Z,19.74
2022-12-11T02:39:42.890Z,19.74
2022-12-11T02:42:10.256Z,19.75
2022-12-11T02:44:37.670Z,19.75
2022-12-11T02:47:08.542Z,19.74
2022-12-11T02:49:35.130Z,19.74
2022-12-11T02:52:02.726Z,19.76
2022-12-11T02:54:31.677Z,19.76
2022-12-11T02:57:02.107Z,19.75
2022-12-11T02:59:31.030Z,19.76
2022-12-11T03:01:57.409Z,19.76
2022-12-11T03:04:25.045Z,19.76
2022-12-11T03:06:53.265Z,19.77
2022-12-11T03:09:19.847Z,19.76
2022-12-11T03:11:46.130Z,19.78
2022-12-11T03:14:12.650Z,19.79
2022-12-11T03:16:42.031Z,19.79
2022-12-11T03:19:11.461Z,19.78
2022-12-11T03:21:44.051Z,19.78
2022-12-11T03:24:13.601Z,19.78
2022-12-11T03:26:42.178Z,19.78
2022-12-11T03:29:13.061Z,19.78
2022-12-11T03:31:43.113Z,19.79
2022-12-11T03:34:13.210Z,19.77
2022-12-11T03:36:42.092Z,19.79
2022-12-11T03:39:10.679Z,19.79
2022-12-11T03:41:38.395Z,19.79
2022-12-11T03:44:04.865Z,19.79
2022-12-11T03:46:32.714Z,19.78
2022-12-11T03:49:01.892Z,19.77
2022-12-11T03:51:29.317Z,19.78
2022-12-11T03:53:57.555Z,19.79
2022-12-11T03:56:25.987Z,19.78
2022-12-11T03:58:52.304Z,19.78
2022-12-11T04:01:18.642Z,19.78
2022-12-11T04:03:45.267Z,19.78
2022-12-11T04:06:11.593Z,19.79
2022-12-11T04:08:37.930Z,19.79
2022-12-11T04:11:05.581Z,19.80
2022-12-11T04:13:31.961Z,19.79
2022-12-11T04:15:58.384Z,19.79
2022-12-11T04:18:24.733Z,19.78
2022-12-11T04:20:52.992Z,19.80
2022-12-11T04:23:19.340Z,19.82
2022-12-11T04:25:45.644Z,19.81
2022-12-11T04:28:13.273Z,19.80
2022-12-11T04:30:39.581Z,19.79
2022-12-11T04:33:05.937Z,19.79
2022-12-11T04:35:32.770Z,19.80
2022-12-11T04:37:59.120Z,19.81
2022-12-11T04:40:25.445Z,19.81
2022-12-11T04:42:51.808Z,19.80
2022-12-11T04:45:19.680Z,19.81
2022-12-11T04:47:45.971Z,19.80
2022-12-11T04:50:13.158Z,19.79
2022-12-11T04:52:39.470Z,19.79
2022-12-11T04:55:06.124Z,19.80
2022-12-11T04:57:32.406Z,19.80
2022-12-11T04:59:58.744Z,19.79
2022-12-11T05:02:26.766Z,19.82
2022-12-11T05:04:53.130Z,19.81
2022-12-11T05:07:19.663Z,19.81
2022-12-11T05:09:45.944Z,19.82
2022-12-11T05:12:12.290Z,19.81
2022-12-11T05:14:38.704Z,19.81
2022-12-11T05:17:04.947Z,19.82
2022-12-11T05:19:32.565Z,19.81
2022-12-11T05:21:58.866Z,19.83
2022-12-11T05:24:25.160Z,19.82
2022-12-11T05:26:51.418Z,19.84
2022-12-11T05:29:17.751Z,19.83
2022-12-11T05:31:44.108Z,19.82
2022-12-11T05:34:10.478Z,19.83
2022-12-11T05:36:38.102Z,19.84
2022-12-11T05:39:04.963Z,19.83
2022-12-11T05:41:31.732Z,19.84
2022-12-11T05:43:58.261Z,19.84
2022-12-11T05:46:25.591Z,19.83
2022-12-11T05:48:53.678Z,19.84
2022-12-11T05:51:20.324Z,19.84
2022-12-11T05:53:48.955Z,19.83
2022-12-11T05:56:16.250Z,19.83
2022-12-11T05:58:43.037Z,19.83
2022-12-11T06:01:10.046Z,19.83
2022-12-11T06:03:36.678Z,19.87
2022-12-11T06:06:03.478Z,19.84
2022-12-11T06:08:29.800Z,19.84
2022-12-11T06:10:57.686Z,19.84
2022-12-11T06:13:24.435Z,19.83
2022-12-11T06:15:50.756Z,19.84
2022-12-11T06:18:17.074Z,19.83
2022-12-11T06:20:43.426Z,19.83
2022-12-11T06:23:09.734Z,19.83
2022-12-11T06:25:38.190Z,19.82
2022-12-11T06:28:06.837Z,19.83
2022-12-11T06:30:37.637Z,19.83
2022-12-11T06:33:05.741Z,19.83
2022-12-11T06:35:35.035Z,19.82
2022-12-11T06:38:05.003Z,19.82
2022-12-11T06:40:31.379Z,19.83
2022-12-11T06:42:57.866Z,19.82
2022-12-11T06:45:25.535Z,19.81
2022-12-11T06:47:51.840Z,19.81
2022-12-11T06:50:18.166Z,19.80
2022-12-11T06:52:44.498Z,19.81
2022-12-11T06:55:11.210Z,19.79
2022-12-11T06:57:37.691Z,19.79
2022-12-11T07:00:04.360Z,19.80
2022-12-11T07:02:32.022Z,19.79
2022-12-11T07:04:58.357Z,19.81
2022-12-11T07:07:24.627Z,19.81
2022-12-11T07:09:51.786Z,19.81
2022-12-11T07:12:18.128Z,19.81
2022-12-11T07:14:44.689Z,19.81
2022-12-11T07:17:11.009Z,19.80
2022-12-11T07:19:38.636Z,19.80
2022-12-11T07:22:04.925Z,19.80
2022-12-11T07:24:31.256Z,19.83
2022-12-11T07:26:57.631Z,19.81
2022-12-11T07:29:23.946Z,19.82
2022-12-11T07:31:50.297Z,19.82
2022-12-11T07:34:17.052Z,19.81
2022-12-11T07:36:44.716Z,19.82
2022-12-11T07:39:11.620Z,19.82
2022-12-11T07:41:38.090Z,19.83
2022-12-11T07:44:04.555Z,19.82
2022-12-11T07:46:32.765Z,19.83
2022-12-11T07:48:59.510Z,19.84
2022-12-11T07:51:26.785Z,19.84
2022-12-11T07:53:55.369Z,19.84
2022-12-11T07:56:21.868Z,19.84
2022-12-11T07:58:48.412Z,19.83
2022-12-11T08:01:15.566Z,19.83
2022-12-11T08:03:42.331Z,19.83
2022-12-11T08:06:08.886Z,19.82
2022-12-11T08:08:35.256Z,19.83
2022-12-11T08:11:03.496Z,19.83
2022-12-11T08:13:29.819Z,19.83
2022-12-11T08:15:56.193Z,19.83
2022-12-11T08:18:22.714Z,19.82
2022-12-11T08:20:49.052Z,19.81
2022-12-11T08:23:15.340Z,19.83
2022-12-11T08:25:41.676Z,19.82
2022-12-11T08:28:09.320Z,19.82
2022-12-11T08:30:35.743Z,19.81
2022-12-11T08:33:02.131Z,19.82
2022-12-11T08:35:28.521Z,19.81
2022-12-11T08:37:54.861Z,19.81
2022-12-11T08:40:21.156Z,19.80
2022-12-11T08:42:47.512Z,19.81
2022-12-11T08:45:15.118Z,19.80
2022-12-11T08:47:41.408Z,19.79
2022-12-11T08:50:08.299Z,19.78
2022-12-11T08:52:34.685Z,19.79
2022-12-11T08:55:01.056Z,19.79
2022-12-11T08:57:27.647Z,19.77
2022-12-11T08:59:54.038Z,19.77
2022-12-11T09:02:21.716Z,19.77
2022-12-11T09:04:48.028Z,19.76
2022-12-11T09:07:14.333Z,19.75
2022-12-11T09:09:40.662Z,19.75
2022-12-11T09:12:06.946Z,19.74
2022-12-11T09:14:33.282Z,19.74
2022-12-11T09:16:59.839Z,19.73
2022-12-11T09:19:32.032Z,19.73
2022-12-11T09:21:58.976Z,19.73
2022-12-11T09:24:25.291Z,19.72
2022-12-11T09:26:51.594Z,19.71
2022-12-11T09:29:17.923Z,19.70
2022-12-11T09:31:44.269Z,19.70
2022-12-11T09:34:11.883Z,19.69
2022-12-11T09:36:39.926Z,19.70
2022-12-11T09:39:07.351Z,19.71
2022-12-11T09:41:36.474Z,19.69
2022-12-11T09:44:12.997Z,19.70
2022-12-11T09:46:40.470Z,19.69
2022-12-11T09:49:16.621Z,19.69
2022-12-11T09:51:46.027Z,19.67
2022-12-11T09:54:14.199Z,19.67
2022-12-11T09:56:44.752Z,19.67
2022-12-11T09:59:18.388Z,19.66
2022-12-11T10:01:49.951Z,19.66
2022-12-11T10:04:22.168Z,19.65
2022-12-11T10:06:55.568Z,19.66
2022-12-11T10:09:25.705Z,19.65
2022-12-11T10:11:58.368Z,19.65
2022-12-11T10:14:28.919Z,19.64
2022-12-11T10:16:58.480Z,19.63
2022-12-11T10:19:27.552Z,19.64
2022-12-11T10:21:55.563Z,19.63
2022-12-11T10:24:57.826Z,19.63
2022-12-11T10:27:13.877Z,19.63
2022-12-11T10:29:40.235Z,19.62
2022-12-11T10:32:12.684Z,19.63
2022-12-11T10:34:42.138Z,19.63
2022-12-11T10:37:09.820Z,19.63
2022-12-11T10:39:36.124Z,19.62
2022-12-11T10:42:12.448Z,19.62
2022-12-11T10:44:38.770Z,19.62
2022-12-11T10:47:06.784Z,19.61
2022-12-11T10:49:34.504Z,19.61
2022-12-11T10:52:01.178Z,19.60
2022-12-11T10:54:32.374Z,19.59
2022-12-11T10:56:59.178Z,19.58
2022-12-11T10:59:29.180Z,19.56
2022-12-11T11:01:55.688Z,19.57
2022-12-11T11:04:24.209Z,19.56
2022-12-11T11:07:00.595Z,19.56
2022-12-11T11:09:29.108Z,19.53
2022-12-11T11:11:56.664Z,19.52
2022-12-11T11:14:22.952Z,19.51
2022-12-11T11:16:50.340Z,19.51
2022-12-11T11:19:18.317Z,19.52
2022-12-11T11:21:48.068Z,19.51
2022-12-11T11:24:21.768Z,19.49
2022-12-11T11:27:12.227Z,19.49
2022-12-11T11:29:35.986Z,19.49
2022-12-11T11:32:13.894Z,19.49
2022-12-11T11:34:40.185Z,19.47
2022-12-11T11:37:22.125Z,19.44
2022-12-11T11:39:50.085Z,19.44
2022-12-11T11:42:18.969Z,19.43
2022-12-11T11:44:50.869Z,19.41
2022-12-11T11:47:19.793Z,19.39
2022-12-11T11:49:50.625Z,19.38
2022-12-11T11:52:21.440Z,19.35
2022-12-11T11:54:52.396Z,19.34
2022-12-11T11:57:23.035Z,19.31
2022-12-11T11:59:51.246Z,19.33
2022-12-11T12:02:18.303Z,19.31
2022-12-11T12:04:45.704Z,19.29
2022-12-11T12:07:22.214Z,19.28
2022-12-11T12:09:54.081Z,19.26
2022-12-11T12:12:33.643Z,19.24
2022-12-11T12:15:10.200Z,19.23
2022-12-11T12:17:44.848Z,19.22
2022-12-11T12:20:17.417Z,19.22
2022-12-11T12:22:51.180Z,19.21
2022-12-11T12:25:21.448Z,19.21
2022-12-11T12:27:53.245Z,19.19
2022-12-11T12:30:23.474Z,19.17
2022-12-11T12:32:57.419Z,19.16
2022-12-11T12:35:30.476Z,19.15
2022-12-11T12:37:58.599Z,19.14
2022-12-11T12:40:30.115Z,19.13
2022-12-11T12:43:01.684Z,19.12
2022-12-11T12:45:32.527Z,19.10
2022-12-11T12:47:59.157Z,19.08
2022-12-11T12:50:28.782Z,19.08
2022-12-11T12:52:55.936Z,19.05
2022-12-11T12:55:23.235Z,19.03
2022-12-11T12:57:51.047Z,19.02
2022-12-11T13:00:28.459Z,19.01
2022-12-11T13:02:56.485Z,18.99
2022-12-11T13:05:24.065Z,18.98
2022-12-11T13:07:54.480Z,18.95
2022-12-11T13:10:24.070Z,18.95
2022-12-11T13:12:50.410Z,18.93
2022-12-11T13:15:25.167Z,18.91
2022-12-11T13:17:51.469Z,18.90
2022-12-11T13:20:20.582Z,18.88
2022-12-11T13:22:48.453Z,18.86
2022-12-11T13:25:19.164Z,18.85
2022-12-11T13:27:45.445Z,18.84
2022-12-11T13:30:22.356Z,18.82
2022-12-11T13:32:55.289Z,18.81
2022-12-11T13:35:22.941Z,18.79
2022-12-11T13:37:52.002Z,18.79
2022-12-11T13:40:21.515Z,18.77
2022-12-11T13:42:49.167Z,18.76
2022-12-11T13:45:20.730Z,18.75
2022-12-11T13:47:47.087Z,18.73
2022-12-11T13:50:16.501Z,18.73
2022-12-11T13:52:52.522Z,18.71
2022-12-11T13:55:22.794Z,18.69
2022-12-11T13:57:49.123Z,18.69
2022-12-11T14:00:19.376Z,18.68
2022-12-11T14:02:45.875Z,18.69
2022-12-11T14:05:13.357Z,18.67
2022-12-11T14:07:41.963Z,18.64
2022-12-11T14:10:15.801Z,18.64
2022-12-11T14:12:43.323Z,18.63
2022-12-11T14:15:13.188Z,18.62
2022-12-11T14:17:41.461Z,18.60
2022-12-11T14:20:15.733Z,18.60
2022-12-11T14:22:42.043Z,18.58
2022-12-11T14:25:19.444Z,18.57
2022-12-11T14:27:47.975Z,18.57
2022-12-11T14:30:19.992Z,18.56
2022-12-11T14:32:46.573Z,18.54
2022-12-11T14:35:18.244Z,18.52
2022-12-11T14:37:44.668Z,18.52
2022-12-11T14:40:15.757Z,18.51
2022-12-11T14:42:45.758Z,18.51
2022-12-11T14:45:18.563Z,18.49
2022-12-11T14:47:45.205Z,18.50
2022-12-11T14:50:15.517Z,18.48
2022-12-11T14:52:43.898Z,18.48
2022-12-11T14:55:14.153Z,18.46
2022-12-11T14:57:42.442Z,18.46
2022-12-11T15:00:20.200Z,18.46
2022-12-11T15:02:56.554Z,18.44
2022-12-11T15:05:23.313Z,18.45
2022-12-11T15:07:56.613Z,18.44
2022-12-11T15:10:24.494Z,18.43
2022-12-11T15:12:50.967Z,18.42
2022-12-11T15:15:18.951Z,18.41
2022-12-11T15:17:51.099Z,18.40
2022-12-11T15:20:23.774Z,18.40
2022-12-11T15:22:50.593Z,18.39
2022-12-11T15:25:18.520Z,18.37
2022-12-11T15:27:44.841Z,18.36
2022-12-11T15:30:21.064Z,18.36
2022-12-11T15:32:48.663Z,18.34
2022-12-11T15:35:23.549Z,18.35
2022-12-11T15:37:52.079Z,18.33
2022-12-11T15:40:18.410Z,18.35
2022-12-11T15:42:44.804Z,18.32
2022-12-11T15:45:15.355Z,18.32
2022-12-11T15:47:42.560Z,18.31
2022-12-11T15:50:14.876Z,18.32
2022-12-11T15:52:41.224Z,18.34
2022-12-11T15:55:07.825Z,18.37
2022-12-11T15:57:34.433Z,18.40
2022-12-11T16:00:01.258Z,18.43
2022-12-11T16:02:27.780Z,18.46
2022-12-11T16:04:54.490Z,18.49
2022-12-11T16:07:23.286Z,18.51
2022-12-11T16:09:50.095Z,18.53
2022-12-11T16:12:16.655Z,18.54
2022-12-11T16:14:43.616Z,18.58
2022-12-11T16:17:10.316Z,18.60
2022-12-11T16:19:37.085Z,18.62
2022-12-11T16:22:03.901Z,18.64
2022-12-11T16:24:31.576Z,18.64
2022-12-11T16:26:58.184Z,18.68
2022-12-11T16:29:24.543Z,18.69
2022-12-11T16:31:50.866Z,18.71
2022-12-11T16:34:17.243Z,18.71
2022-12-11T16:36:43.684Z,18.73
2022-12-11T16:39:10.412Z,18.74
2022-12-11T16:41:38.221Z,18.77
2022-12-11T16:44:04.760Z,18.78
2022-12-11T16:46:31.167Z,18.80
2022-12-11T16:48:57.511Z,18.81
2022-12-11T16:51:23.953Z,18.81
2022-12-11T16:53:50.344Z,18.84
2022-12-11T16:56:16.670Z,18.84
2022-12-11T16:58:44.298Z,18.87
2022-12-11T17:01:11.712Z,18.86
2022-12-11T17:03:38.362Z,18.89
2022-12-11T17:06:05.744Z,18.90
2022-12-11T17:08:32.122Z,18.90
2022-12-11T17:10:58.439Z,18.92
2022-12-11T17:13:25.053Z,18.93
2022-12-11T17:15:52.734Z,18.94
2022-12-11T17:18:19.106Z,18.95
2022-12-11T17:20:45.396Z,18.96
2022-12-11T17:23:12.418Z,18.96
2022-12-11T17:25:39.948Z,18.98
2022-12-11T17:28:06.272Z,18.99
2022-12-11T17:30:32.604Z,19.00
2022-12-11T17:33:00.169Z,19.00
2022-12-11T17:35:26.494Z,19.01
2022-12-11T17:37:52.784Z,19.01
2022-12-11T17:40:19.077Z,19.02
2022-12-11T17:42:45.378Z,19.03
2022-12-11T17:45:12.117Z,19.03
2022-12-11T17:47:38.647Z,19.04
2022-12-11T17:50:06.515Z,19.04
2022-12-11T17:52:35.017Z,19.05
2022-12-11T17:55:03.707Z,19.05
2022-12-11T17:57:30.030Z,19.06
2022-12-11T17:59:56.406Z,19.07
2022-12-11T18:02:22.722Z,19.08
2022-12-11T18:04:49.143Z,19.08
2022-12-11T18:07:16.984Z,19.09
2022-12-11T18:09:43.405Z,19.10
2022-12-11T18:12:10.088Z,19.10
2022-12-11T18:14:36.887Z,19.10
2022-12-11T18:17:03.633Z,19.11
2022-12-11T18:19:30.068Z,19.11
2022-12-11T18:21:56.511Z,19.12
2022-12-11T18:24:24.099Z,19.13
2022-12-11T18:26:50.390Z,19.12
2022-12-11T18:29:16.803Z,19.15
2022-12-11T18:31:43.336Z,19.15
2022-12-11T18:34:10.100Z,19.15
2022-12-11T18:36:36.389Z,19.15
2022-12-11T18:39:02.846Z,19.16
2022-12-11T18:41:30.425Z,19.16
2022-12-11T18:43:56.736Z,19.16
2022-12-11T18:46:23.139Z,19.16
2022-12-11T18:48:49.677Z,19.17
2022-12-11T18:51:17.757Z,19.16
2022-12-11T18:53:44.423Z,19.16
2022-12-11T18:56:11.875Z,19.16
2022-12-11T18:58:39.799Z,19.17
2022-12-11T19:01:07.164Z,19.18
2022-12-11T19:03:33.496Z,19.17
2022-12-11T19:06:05.254Z,19.17
2022-12-11T19:08:31.610Z,19.21
2022-12-11T19:10:57.948Z,19.21
2022-12-11T19:13:24.268Z,19.20
2022-12-11T19:15:51.994Z,19.22
2022-12-11T19:18:18.364Z,19.21
2022-12-11T19:20:50.021Z,19.22
2022-12-11T19:23:18.970Z,19.25
2022-12-11T19:25:46.436Z,19.23
2022-12-11T19:28:13.052Z,19.23
2022-12-11T19:30:41.608Z,19.25
2022-12-11T19:33:09.329Z,19.25
2022-12-11T19:35:35.697Z,19.25
2022-12-11T19:38:02.040Z,19.27
2022-12-11T19:40:28.347Z,19.27
2022-12-11T19:42:54.782Z,19.27
2022-12-11T19:45:21.101Z,19.27
2022-12-11T19:47:47.432Z,19.28
2022-12-11T19:50:15.018Z,19.28
2022-12-11T19:52:46.001Z,19.27
2022-12-11T19:55:13.051Z,19.28
2022-12-11T19:57:39.583Z,19.28
2022-12-11T20:00:06.434Z,19.29
2022-12-11T20:02:32.799Z,19.30
2022-12-11T20:04:59.122Z,19.30
2022-12-11T20:07:30.696Z,19.31
2022-12-11T20:09:57.238Z,19.30
2022-12-11T20:12:23.589Z,19.30
2022-12-11T20:14:49.888Z,19.30
2022-12-11T20:17:16.223Z,19.30
2022-12-11T20:19:42.629Z,19.30
2022-12-11T20:22:09.327Z,19.30
2022-12-11T20:24:37.393Z,19.30
2022-12-11T20:27:03.692Z,19.31
2022-12-11T20:29:30.011Z,19.31
2022-12-11T20:31:56.332Z,19.33
2022-12-11T20:34:22.699Z,19.31
2022-12-11T20:36:49.053Z,19.31
2022-12-11T20:39:15.330Z,19.31
2022-12-11T20:41:42.922Z,19.31
2022-12-11T20:44:09.320Z,19.32
2022-12-11T20:46:35.599Z,19.33
2022-12-11T20:49:01.935Z,19.31
2022-12-11T20:51:28.348Z,19.32
2022-12-11T20:53:55.242Z,19.31
2022-12-11T20:56:21.741Z,19.31
2022-12-11T20:58:49.342Z,19.31
2022-12-11T21:01:16.666Z,19.32
2022-12-11T21:03:43.273Z,19.33
2022-12-11T21:06:16.806Z,19.33
2022-12-11T21:08:43.097Z,19.32
2022-12-11T21:11:09.388Z,19.32
2022-12-11T21:13:35.725Z,19.32
2022-12-11T21:16:04.913Z,19.33
2022-12-11T21:18:31.314Z,19.33
2022-12-11T21:20:57.647Z,19.33
2022-12-11T21:23:23.941Z,19.34
2022-12-11T21:25:50.709Z,19.33
2022-12-11T21:28:17.244Z,19.32
2022-12-11T21:30:43.695Z,19.32
2022-12-11T21:33:11.277Z,19.31
2022-12-11T21:35:37.564Z,19.32
2022-12-11T21:38:03.895Z,19.31
2022-12-11T21:40:30.605Z,19.30
2022-12-11T21:42:57.148Z,19.30
2022-12-11T21:45:59.276Z,19.30
2022-12-11T21:48:11.313Z,19.30
2022-12-11T21:50:37.603Z,19.31
2022-12-11T21:53:03.933Z,19.30
2022-12-11T21:55:30.232Z,19.30
2022-12-11T21:57:56.518Z,19.29
2022-12-11T22:00:23.280Z,19.28
2022-12-11T22:02:49.779Z,19.29
2022-12-11T22:05:17.426Z,19.30
2022-12-11T22:07:43.693Z,19.29
2022-12-11T22:10:10.297Z,19.27
2022-12-11T22:12:36.616Z,19.27
2022-12-11T22:15:03.287Z,19.28
2022-12-11T22:17:29.617Z,19.28
2022-12-11T22:19:55.912Z,19.28
2022-12-11T22:22:23.512Z,19.28
2022-12-11T22:24:49.798Z,19.28
2022-12-11T22:27:20.519Z,19.28
2022-12-11T22:29:49.854Z,19.28
2022-12-11T22:32:16.444Z,19.28
2022-12-11T22:34:42.738Z,19.28
2022-12-11T22:37:09.074Z,19.28
2022-12-11T22:39:36.714Z,19.27
2022-12-11T22:42:03.051Z,19.28
2022-12-11T22:44:29.340Z,19.28
2022-12-11T22:46:55.684Z,19.28
2022-12-11T22:49:21.994Z,19.27
2022-12-11T22:51:48.547Z,19.27
2022-12-11T22:54:14.967Z,19.26
2022-12-11T22:56:42.560Z,19.27
2022-12-11T22:59:08.859Z,19.27
2022-12-11T23:01:35.219Z,19.28
2022-12-11T23:04:01.755Z,19.26
2022-12-11T23:06:28.039Z,19.27
2022-12-11T23:08:56.979Z,19.27
2022-12-11T23:11:25.157Z,19.26
2022-12-11T23:13:53.020Z,19.27
2022-12-11T23:16:20.817Z,19.26
2022-12-11T23:18:47.245Z,19.26
2022-12-11T23:21:14.010Z,19.26
2022-12-11T23:23:40.557Z,19.26
2022-12-11T23:26:08.214Z,19.25
2022-12-11T23:28:34.748Z,19.25
2022-12-11T23:31:02.509Z,19.25
2022-12-11T23:33:28.902Z,19.26
2022-12-11T23:35:55.424Z,19.25
2022-12-11T23:38:21.791Z,19.24
2022-12-11T23:40:48.474Z,19.25
2022-12-11T23:43:14.766Z,19.24
2022-12-11T23:45:42.801Z,19.25
2022-12-11T23:48:10.390Z,19.26
2022-12-11T23:50:36.885Z,19.23
2022-12-11T23:53:03.218Z,19.25
2022-12-11T23:55:31.437Z,19.24
2022-12-11T23:57:57.881Z,19.24
